createdAt,value
2023-01-29T00:01:25.526Z,97517.34
2023-01-29T00:03:28.818Z,97510.31
2023-01-29T00:05:31.652Z,97514.59
2023-01-29T00:07:37.725Z,97511.03
2023-01-29T00:09:40.504Z,97513.78
2023-01-29T00:11:43.579Z,97515.84
2023-01-29T00:13:46.257Z,97514.03
2023-01-29T00:15:55.934Z,97516.25
2023-01-29T00:17:58.903Z,97512.13
2023-01-29T00:20:01.590Z,97524.22
2023-01-29T00:22:04.505Z,97515.69
2023-01-29T00:24:08.969Z,97506.44
2023-01-29T00:26:12.450Z,97513.09
2023-01-29T00:28:16.247Z,97511.28
2023-01-29T00:30:20.938Z,97514.47
2023-01-29T00:32:23.727Z,97510.31
2023-01-29T00:34:26.473Z,97510.31
2023-01-29T00:36:29.229Z,97506.06
2023-01-29T00:38:32.190Z,97498.75
2023-01-29T00:40:52.587Z,97510.47
2023-01-29T00:43:13.387Z,97511.03
2023-01-29T00:45:16.449Z,97503.84
2023-01-29T00:47:34.429Z,97502.75
2023-01-29T00:49:37.135Z,97504.97
2023-01-29T00:51:40.405Z,97520.78
2023-01-29T00:53:43.205Z,97512.94
2023-01-29T00:55:47.316Z,97510.31
2023-01-29T00:57:50.382Z,97512.25
2023-01-29T00:59:53.152Z,97517.34
2023-01-29T01:02:13.307Z,97513.78
2023-01-29T01:04:16.166Z,97522.44
2023-01-29T01:06:19.037Z,97520.53
2023-01-29T01:08:39.208Z,97512.81
2023-01-29T01:10:41.931Z,97522.31
2023-01-29T01:12:46.027Z,97517.91
2023-01-29T01:14:49.118Z,97518.72
2023-01-29T01:16:51.830Z,97528.63
2023-01-29T01:18:54.539Z,97527.53
2023-01-29T01:20:59.494Z,97525.63
2023-01-29T01:23:02.289Z,97523.97
2023-01-29T01:25:06.536Z,97527.69
2023-01-29T01:27:09.536Z,97534.56
2023-01-29T01:29:14.475Z,97541.59
2023-01-29T01:31:17.327Z,97539.94
2023-01-29T01:33:20.234Z,97546.00
2023-01-29T01:35:22.922Z,97536.34
2023-01-29T01:37:25.804Z,97545.56
2023-01-29T01:39:28.973Z,97548.06
2023-01-29T01:41:31.878Z,97553.00
2023-01-29T01:43:49.295Z,97540.75
2023-01-29T01:45:54.020Z,97547.78
2023-01-29T01:48:02.050Z,97555.91
2023-01-29T01:50:10.123Z,97556.97
2023-01-29T01:52:14.595Z,97551.75
2023-01-29T01:54:22.237Z,97560.69
2023-01-29T01:56:29.100Z,97563.28
2023-01-29T01:58:35.833Z,97560.69
2023-01-29T02:00:39.940Z,97563.03
2023-01-29T02:03:04.559Z,97571.84
2023-01-29T02:05:26.933Z,97561.66
2023-01-29T02:07:47.297Z,97567.84
2023-01-29T02:09:53.452Z,97571.00
2023-01-29T02:11:56.466Z,97575.41
2023-01-29T02:13:59.552Z,97582.56
2023-01-29T02:16:02.314Z,97580.22
2023-01-29T02:18:06.599Z,97598.06
2023-01-29T02:20:19.409Z,97585.59
2023-01-29T02:22:55.234Z,97574.59
2023-01-29T02:25:12.721Z,97594.19
2023-01-29T02:27:18.716Z,97598.03
2023-01-29T02:29:33.604Z,97610.16
2023-01-29T02:31:42.155Z,97611.56
2023-01-29T02:33:56.453Z,97615.16
2023-01-29T02:36:05.708Z,97622.03
2023-01-29T02:38:18.025Z,97621.75
2023-01-29T02:40:30.331Z,97627.94
2023-01-29T02:42:36.837Z,97626.69
2023-01-29T02:44:44.915Z,97621.72
2023-01-29T02:46:55.909Z,97624.19
2023-01-29T02:49:03.120Z,97637.00
2023-01-29T02:51:08.761Z,97625.97
2023-01-29T02:53:15.889Z,97621.84
2023-01-29T02:55:25.186Z,97633.84
2023-01-29T02:57:30.878Z,97630.72
2023-01-29T02:59:38.563Z,97629.47
2023-01-29T03:01:48.583Z,97634.19
2023-01-29T03:03:54.623Z,97618.72
2023-01-29T03:06:06.219Z,97626.44
2023-01-29T03:08:12.670Z,97633.91
2023-01-29T03:10:19.683Z,97628.97
2023-01-29T03:12:33.790Z,97628.97
2023-01-29T03:14:54.137Z,97629.19
2023-01-29T03:16:58.571Z,97634.44
2023-01-29T03:19:06.395Z,97637.31
2023-01-29T03:21:29.357Z,97634.00
2023-01-29T03:23:53.681Z,97633.06
2023-01-29T03:26:17.843Z,97620.94
2023-01-29T03:28:40.315Z,97623.56
2023-01-29T03:31:04.486Z,97629.75
2023-01-29T03:33:12.199Z,97619.28
2023-01-29T03:35:21.056Z,97628.50
2023-01-29T03:37:30.932Z,97629.88
2023-01-29T03:39:34.287Z,97619.69
2023-01-29T03:41:39.731Z,97628.25
2023-01-29T03:43:52.602Z,97623.84
2023-01-29T03:46:04.914Z,97626.34
2023-01-29T03:48:14.218Z,97621.22
2023-01-29T03:50:31.973Z,97622.75
2023-01-29T03:52:43.872Z,97628.13
2023-01-29T03:54:54.974Z,97631.72
2023-01-29T03:57:03.698Z,97628.72
2023-01-29T03:59:17.125Z,97626.34
2023-01-29T04:01:25.147Z,97630.34
2023-01-29T04:03:35.084Z,97618.50
2023-01-29T04:05:44.538Z,97618.03
2023-01-29T04:07:49.130Z,97622.31
2023-01-29T04:09:54.798Z,97628.00
2023-01-29T04:12:05.501Z,97625.66
2023-01-29T04:14:08.854Z,97617.44
2023-01-29T04:16:18.486Z,97625.97
2023-01-29T04:18:21.225Z,97623.34
2023-01-29T04:20:25.965Z,97624.03
2023-01-29T04:22:33.145Z,97622.25
2023-01-29T04:24:36.220Z,97623.53
2023-01-29T04:26:56.424Z,97623.25
2023-01-29T04:29:17.540Z,97620.63
2023-01-29T04:31:24.389Z,97621.31
2023-01-29T04:33:35.411Z,97627.25
2023-01-29T04:35:53.214Z,97623.38
2023-01-29T04:38:07.361Z,97619.94
2023-01-29T04:40:21.711Z,97621.44
2023-01-29T04:42:32.143Z,97623.28
2023-01-29T04:44:40.148Z,97620.53
2023-01-29T04:46:50.647Z,97618.03
2023-01-29T04:49:05.021Z,97615.16
2023-01-29T04:51:15.199Z,97626.59
2023-01-29T04:53:23.728Z,97627.50
2023-01-29T04:55:33.943Z,97626.53
2023-01-29T04:57:46.120Z,97622.41
2023-01-29T04:59:53.487Z,97621.03
2023-01-29T05:01:56.816Z,97627.13
2023-01-29T05:04:03.408Z,97622.44
2023-01-29T05:06:08.852Z,97621.63
2023-01-29T05:08:16.846Z,97625.31
2023-01-29T05:10:21.923Z,97624.34
2023-01-29T05:12:28.218Z,97626.03
2023-01-29T05:14:34.837Z,97633.34
2023-01-29T05:16:43.641Z,97631.16
2023-01-29T05:18:46.942Z,97632.66
2023-01-29T05:20:51.205Z,97628.78
2023-01-29T05:22:54.031Z,97630.41
2023-01-29T05:24:58.090Z,97635.09
2023-01-29T05:27:19.024Z,97637.34
2023-01-29T05:29:21.981Z,97647.53
2023-01-29T05:31:24.820Z,97649.72
2023-01-29T05:33:29.557Z,97649.91
2023-01-29T05:35:33.051Z,97654.16
2023-01-29T05:37:35.908Z,97655.56
2023-01-29T05:39:38.676Z,97658.56
2023-01-29T05:41:42.697Z,97661.44
2023-01-29T05:43:45.423Z,97662.97
2023-01-29T05:45:53.528Z,97667.91
2023-01-29T05:47:57.711Z,97668.06
2023-01-29T05:50:00.485Z,97679.22
2023-01-29T05:52:03.297Z,97689.00
2023-01-29T05:54:06.121Z,97687.75
2023-01-29T05:56:09.285Z,97693.53
2023-01-29T05:58:13.840Z,97699.84
2023-01-29T06:00:18.122Z,97687.72
2023-01-29T06:02:21.324Z,97701.09
2023-01-29T06:04:24.067Z,97712.25
2023-01-29T06:06:26.734Z,97707.84
2023-01-29T06:08:29.434Z,97711.00
2023-01-29T06:10:32.095Z,97716.69
2023-01-29T06:12:34.935Z,97707.63
2023-01-29T06:14:39.118Z,97705.25
2023-01-29T06:16:41.810Z,97717.53
2023-01-29T06:18:44.644Z,97720.53
2023-01-29T06:20:47.344Z,97726.72
2023-01-29T06:22:50.063Z,97724.94
2023-01-29T06:24:52.912Z,97720.38
2023-01-29T06:26:55.756Z,97724.06
2023-01-29T06:28:58.383Z,97728.47
2023-01-29T06:31:22.046Z,97727.63
2023-01-29T06:33:27.909Z,97738.50
2023-01-29T06:35:30.723Z,97744.03
2023-01-29T06:37:33.572Z,97754.50
2023-01-29T06:39:36.590Z,97748.53
2023-01-29T06:41:39.349Z,97754.09
2023-01-29T06:43:45.254Z,97764.56
2023-01-29T06:45:49.959Z,97770.75
2023-01-29T06:47:54.062Z,97765.13
2023-01-29T06:49:56.747Z,97761.66
2023-01-29T06:51:59.506Z,97773.94
2023-01-29T06:54:02.258Z,97770.34
2023-01-29T06:56:05.662Z,97770.81
2023-01-29T06:58:09.465Z,97778.41
2023-01-29T07:00:13.470Z,97770.84
2023-01-29T07:02:16.511Z,97763.56
2023-01-29T07:04:20.804Z,97761.31
2023-01-29T07:06:28.912Z,97774.31
2023-01-29T07:08:32.018Z,97771.41
2023-01-29T07:10:34.803Z,97784.31
2023-01-29T07:12:37.490Z,97783.63
2023-01-29T07:14:40.238Z,97792.50
2023-01-29T07:16:42.989Z,97786.84
2023-01-29T07:18:45.814Z,97780.16
2023-01-29T07:20:49.825Z,97802.63
2023-01-29T07:22:52.567Z,97790.56
2023-01-29T07:24:55.412Z,97781.63
2023-01-29T07:26:58.167Z,97786.59
2023-01-29T07:29:00.999Z,97787.31
2023-01-29T07:31:03.816Z,97780.97
2023-01-29T07:33:08.627Z,97775.88
2023-01-29T07:35:11.869Z,97783.69
2023-01-29T07:37:15.976Z,97787.50
2023-01-29T07:39:18.698Z,97782.84
2023-01-29T07:41:21.569Z,97781.75
2023-01-29T07:43:25.682Z,97772.25
2023-01-29T07:45:28.448Z,97773.34
2023-01-29T07:47:31.297Z,97766.19
2023-01-29T07:49:33.976Z,97761.13
2023-01-29T07:51:36.764Z,97764.03
2023-01-29T07:53:40.989Z,97771.94
2023-01-29T07:55:45.224Z,97769.31
2023-01-29T07:57:48.159Z,97773.56
2023-01-29T07:59:51.409Z,97776.88
2023-01-29T08:01:54.384Z,97776.34
2023-01-29T08:03:58.269Z,97772.38
2023-01-29T08:06:01.189Z,97779.41
2023-01-29T08:08:07.484Z,97773.94
2023-01-29T08:10:12.740Z,97769.94
2023-01-29T08:12:15.485Z,97770.75
2023-01-29T08:14:18.391Z,97775.72
2023-01-29T08:16:21.121Z,97782.09
2023-01-29T08:18:23.852Z,97785.00
2023-01-29T08:20:27.219Z,97781.97
2023-01-29T08:22:30.025Z,97778.94
2023-01-29T08:24:47.537Z,97779.66
2023-01-29T08:26:57.360Z,97788.06
2023-01-29T08:29:00.368Z,97790.56
2023-01-29T08:31:03.205Z,97799.25
2023-01-29T08:33:05.987Z,97789.72
2023-01-29T08:35:09.396Z,97791.66
2023-01-29T08:37:12.169Z,97796.06
2023-01-29T08:39:14.947Z,97790.00
2023-01-29T08:41:17.610Z,97793.31
2023-01-29T08:43:21.663Z,97797.59
2023-01-29T08:45:24.312Z,97794.97
2023-01-29T08:47:28.602Z,97799.78
2023-01-29T08:49:31.534Z,97792.50
2023-01-29T08:51:34.319Z,97804.38
2023-01-29T08:53:37.017Z,97813.63
2023-01-29T08:55:41.205Z,97812.69
2023-01-29T08:57:43.873Z,97812.69
2023-01-29T08:59:47.908Z,97813.63
2023-01-29T09:01:50.722Z,97813.50
2023-01-29T09:03:53.371Z,97817.50
2023-01-29T09:05:56.017Z,97814.06
2023-01-29T09:07:59.308Z,97807.97
2023-01-29T09:10:01.994Z,97811.44
2023-01-29T09:12:05.402Z,97817.38
2023-01-29T09:14:08.146Z,97811.84
2023-01-29T09:16:12.336Z,97814.31
2023-01-29T09:18:15.491Z,97808.53
2023-01-29T09:20:19.453Z,97809.09
2023-01-29T09:22:22.245Z,97819.44
2023-01-29T09:24:25.113Z,97822.75
2023-01-29T09:26:27.891Z,97817.09
2023-01-29T09:28:30.725Z,97816.94
2023-01-29T09:30:34.612Z,97822.31
2023-01-29T09:32:54.900Z,97829.22
2023-01-29T09:34:57.955Z,97825.91
2023-01-29T09:37:00.820Z,97828.53
2023-01-29T09:39:04.156Z,97836.41
2023-01-29T09:41:16.136Z,97832.81
2023-01-29T09:43:21.768Z,97835.19
2023-01-29T09:45:25.870Z,97844.44
2023-01-29T09:47:30.712Z,97838.38
2023-01-29T09:49:41.612Z,97834.91
2023-01-29T09:51:50.016Z,97847.75
2023-01-29T09:54:00.760Z,97847.59
2023-01-29T09:56:07.042Z,97849.13
2023-01-29T09:58:17.651Z,97857.72
2023-01-29T10:00:26.187Z,97862.69
2023-01-29T10:02:57.324Z,97861.84
2023-01-29T10:05:21.653Z,97868.59
2023-01-29T10:08:01.381Z,97866.97
2023-01-29T10:10:24.577Z,97874.00
2023-01-29T10:12:53.723Z,97879.09
2023-01-29T10:15:06.515Z,97884.06
2023-01-29T10:17:20.270Z,97881.44
2023-01-29T10:19:47.812Z,97885.03
2023-01-29T10:22:22.435Z,97885.03
2023-01-29T10:24:37.735Z,97885.03
2023-01-29T10:26:41.502Z,97882.41
2023-01-29T10:28:47.586Z,97883.97
2023-01-29T10:30:51.801Z,97882.84
2023-01-29T10:32:56.444Z,97880.38
2023-01-29T10:35:03.788Z,97884.78
2023-01-29T10:37:18.403Z,97874.28
2023-01-29T10:39:22.959Z,97875.66
2023-01-29T10:41:42.574Z,97880.63
2023-01-29T10:43:56.301Z,97873.44
2023-01-29T10:46:12.269Z,97878.47
2023-01-29T10:48:41.660Z,97873.91
2023-01-29T10:50:51.700Z,97882.47
2023-01-29T10:53:14.377Z,97875.44
2023-01-29T10:55:31.685Z,97878.19
2023-01-29T10:57:55.352Z,97868.53
2023-01-29T11:00:07.312Z,97871.28
2023-01-29T11:02:18.268Z,97877.38
2023-01-29T11:04:21.082Z,97871.84
2023-01-29T11:06:26.178Z,97872.94
2023-01-29T11:08:35.717Z,97872.13
2023-01-29T11:10:45.024Z,97869.34
2023-01-29T11:12:48.134Z,97871.69
2023-01-29T11:14:56.488Z,97870.03
2023-01-29T11:16:59.999Z,97863.28
2023-01-29T11:19:02.714Z,97865.22
2023-01-29T11:21:06.615Z,97862.72
2023-01-29T11:23:26.397Z,97861.75
2023-01-29T11:25:32.556Z,97866.72
2023-01-29T11:27:40.697Z,97860.78
2023-01-29T11:29:45.877Z,97867.41
2023-01-29T11:31:49.597Z,97863.56
2023-01-29T11:33:55.103Z,97860.50
2023-01-29T11:35:58.966Z,97858.84
2023-01-29T11:38:09.738Z,97859.13
2023-01-29T11:40:37.413Z,97860.94
2023-01-29T11:42:40.423Z,97859.69
2023-01-29T11:44:44.482Z,97854.97
2023-01-29T11:46:47.952Z,97851.53
2023-01-29T11:48:59.076Z,97848.59
2023-01-29T11:51:11.257Z,97848.34
2023-01-29T11:53:28.130Z,97844.75
2023-01-29T11:55:48.580Z,97841.31
2023-01-29T11:57:59.473Z,97843.94
2023-01-29T12:00:06.510Z,97848.06
2023-01-29T12:02:26.486Z,97846.13
2023-01-29T12:04:29.535Z,97836.59
2023-01-29T12:06:36.498Z,97849.56
2023-01-29T12:08:40.560Z,97836.59
2023-01-29T12:10:43.743Z,97835.47
2023-01-29T12:12:46.557Z,97831.47
2023-01-29T12:15:04.555Z,97834.25
2023-01-29T12:17:14.825Z,97832.31
2023-01-29T12:19:26.709Z,97831.47
2023-01-29T12:21:36.746Z,97828.56
2023-01-29T12:23:48.542Z,97828.28
2023-01-29T12:26:01.631Z,97829.13
2023-01-29T12:28:11.433Z,97827.19
2023-01-29T12:30:22.672Z,97817.66
2023-01-29T12:32:33.643Z,97807.28
2023-01-29T12:34:45.506Z,97808.00
2023-01-29T12:36:53.242Z,97809.34
2023-01-29T12:38:56.601Z,97804.63
2023-01-29T12:41:06.280Z,97802.97
2023-01-29T12:43:16.741Z,97801.03
2023-01-29T12:45:24.413Z,97798.41
2023-01-29T12:47:32.315Z,97795.53
2023-01-29T12:49:39.183Z,97798.81
2023-01-29T12:51:50.607Z,97808.34
2023-01-29T12:53:58.619Z,97794.69
2023-01-29T12:56:05.277Z,97783.91
2023-01-29T12:58:13.693Z,97784.44
2023-01-29T13:00:23.023Z,97776.84
2023-01-29T13:02:33.909Z,97789.16
2023-01-29T13:04:41.205Z,97779.47
2023-01-29T13:06:49.166Z,97781.94
2023-01-29T13:08:55.216Z,97787.06
2023-01-29T13:11:02.518Z,97785.94
2023-01-29T13:13:13.544Z,97780.56
2023-01-29T13:15:25.664Z,97780.41
2023-01-29T13:17:34.100Z,97771.97
2023-01-29T13:19:41.239Z,97781.94
2023-01-29T13:21:45.584Z,97784.44
2023-01-29T13:23:51.324Z,97788.03
2023-01-29T13:25:55.601Z,97782.25
2023-01-29T13:27:58.993Z,97785.00
2023-01-29T13:30:02.532Z,97777.28
2023-01-29T13:32:07.039Z,97791.25
2023-01-29T13:34:15.597Z,97780.03
2023-01-29T13:36:24.307Z,97786.97
2023-01-29T13:38:32.206Z,97782.53
2023-01-29T13:40:35.706Z,97778.94
2023-01-29T13:42:44.329Z,97773.53
2023-01-29T13:44:50.686Z,97784.72
2023-01-29T13:46:57.354Z,97789.97
2023-01-29T13:49:05.001Z,97787.19
2023-01-29T13:51:15.576Z,97788.19
2023-01-29T13:53:24.049Z,97793.97
2023-01-29T13:55:32.259Z,97780.97
2023-01-29T13:57:54.679Z,97782.09
2023-01-29T13:59:59.008Z,97775.19
2023-01-29T14:02:04.822Z,97781.13
2023-01-29T14:04:25.439Z,97775.03
2023-01-29T14:06:49.844Z,97781.81
2023-01-29T14:08:52.522Z,97778.19
2023-01-29T14:11:34.623Z,97779.84
2023-01-29T14:13:37.459Z,97781.66
2023-01-29T14:15:40.479Z,97780.16
2023-01-29T14:17:55.950Z,97788.19
2023-01-29T14:20:04.202Z,97784.72
2023-01-29T14:22:07.073Z,97787.19
2023-01-29T14:24:17.263Z,97786.38
2023-01-29T14:26:24.383Z,97789.16
2023-01-29T14:28:31.050Z,97790.28
2023-01-29T14:30:36.155Z,97787.06
2023-01-29T14:32:41.463Z,97786.97
2023-01-29T14:34:47.676Z,97789.59
2023-01-29T14:36:56.168Z,97795.94
2023-01-29T14:39:00.530Z,97795.78
2023-01-29T14:41:15.627Z,97797.47
2023-01-29T14:43:21.710Z,97796.75
2023-01-29T14:45:27.576Z,97792.47
2023-01-29T14:47:55.450Z,97799.81
2023-01-29T14:49:59.255Z,97798.53
2023-01-29T14:52:03.907Z,97797.75
2023-01-29T14:54:18.389Z,97796.41
2023-01-29T14:56:28.401Z,97796.38
2023-01-29T14:58:38.148Z,97799.44
2023-01-29T15:00:44.696Z,97804.13
2023-01-29T15:02:47.881Z,97798.19
2023-01-29T15:04:55.771Z,97799.16
2023-01-29T15:07:05.424Z,97809.94
2023-01-29T15:09:18.654Z,97808.13
2023-01-29T15:11:34.833Z,97793.91
2023-01-29T15:13:45.446Z,97796.53
2023-01-29T15:15:53.527Z,97792.50
2023-01-29T15:18:00.787Z,97795.97
2023-01-29T15:20:03.608Z,97791.69
2023-01-29T15:22:11.093Z,97783.69
2023-01-29T15:24:14.735Z,97791.00
2023-01-29T15:26:20.702Z,97787.00
2023-01-29T15:28:23.665Z,97784.09
2023-01-29T15:30:32.902Z,97782.84
2023-01-29T15:32:38.633Z,97780.09
2023-01-29T15:34:43.701Z,97774.72
2023-01-29T15:36:49.313Z,97779.84
2023-01-29T15:39:18.802Z,97781.47
2023-01-29T15:41:24.192Z,97788.94
2023-01-29T15:43:28.743Z,97777.22
2023-01-29T15:45:33.500Z,97780.38
2023-01-29T15:47:37.493Z,97774.00
2023-01-29T15:49:41.476Z,97775.66
2023-01-29T15:51:44.554Z,97774.69
2023-01-29T15:53:51.713Z,97775.38
2023-01-29T15:55:59.889Z,97778.00
2023-01-29T15:58:02.833Z,97782.41
2023-01-29T16:00:08.635Z,97784.94
2023-01-29T16:02:29.196Z,97782.31
2023-01-29T16:04:32.577Z,97788.28
2023-01-29T16:06:39.099Z,97796.16
2023-01-29T16:08:44.969Z,97788.50
2023-01-29T16:10:51.784Z,97789.47
2023-01-29T16:12:57.356Z,97790.28
2023-01-29T16:15:04.857Z,97791.97
2023-01-29T16:17:25.667Z,97796.28
2023-01-29T16:19:30.272Z,97799.75
2023-01-29T16:21:37.431Z,97801.63
2023-01-29T16:23:44.935Z,97797.22
2023-01-29T16:25:50.079Z,97790.59
2023-01-29T16:27:53.091Z,97799.44
2023-01-29T16:29:57.171Z,97796.94
2023-01-29T16:32:02.369Z,97789.06
2023-01-29T16:34:10.046Z,97788.94
2023-01-29T16:36:17.868Z,97785.63
2023-01-29T16:38:28.846Z,97791.56
2023-01-29T16:40:34.300Z,97795.00
2023-01-29T16:42:37.776Z,97798.59
2023-01-29T16:44:41.642Z,97796.41
2023-01-29T16:46:48.568Z,97810.19
2023-01-29T16:48:52.048Z,97802.47
2023-01-29T16:51:05.649Z,97801.66
2023-01-29T16:53:13.761Z,97798.34
2023-01-29T16:55:22.698Z,97807.16
2023-01-29T16:57:28.570Z,97803.69
2023-01-29T16:59:35.141Z,97804.81
2023-01-29T17:01:37.939Z,97810.06
2023-01-29T17:03:42.778Z,97804.13
2023-01-29T17:05:46.558Z,97813.78
2023-01-29T17:07:49.574Z,97809.38
2023-01-29T17:09:55.570Z,97809.38
2023-01-29T17:12:01.603Z,97807.72
2023-01-29T17:14:06.577Z,97809.50
2023-01-29T17:16:21.840Z,97810.47
2023-01-29T17:18:25.880Z,97809.66
2023-01-29T17:20:31.404Z,97802.75
2023-01-29T17:22:34.083Z,97815.88
2023-01-29T17:24:36.763Z,97813.25
2023-01-29T17:26:40.502Z,97816.00
2023-01-29T17:28:44.351Z,97811.84
2023-01-29T17:31:00.122Z,97817.78
2023-01-29T17:33:13.340Z,97824.94
2023-01-29T17:35:17.583Z,97823.97
2023-01-29T17:37:21.995Z,97822.31
2023-01-29T17:39:25.575Z,97825.91
2023-01-29T17:41:31.129Z,97822.47
2023-01-29T17:43:33.920Z,97833.09
2023-01-29T17:45:36.755Z,97825.91
2023-01-29T17:47:39.580Z,97828.53
2023-01-29T17:49:43.106Z,97831.16
2023-01-29T17:51:46.050Z,97834.63
2023-01-29T17:53:50.137Z,97829.50
2023-01-29T17:55:53.027Z,97829.50
2023-01-29T17:57:55.810Z,97832.13
2023-01-29T17:59:58.540Z,97825.22
2023-01-29T18:02:01.247Z,97829.66
2023-01-29T18:04:04.160Z,97838.22
2023-01-29T18:06:09.029Z,97839.16
2023-01-29T18:08:17.681Z,97840.13
2023-01-29T18:10:22.997Z,97840.13
2023-01-29T18:12:25.903Z,97842.63
2023-01-29T18:14:28.566Z,97832.28
2023-01-29T18:16:37.080Z,97838.63
2023-01-29T18:18:40.289Z,97835.31
2023-01-29T18:20:44.929Z,97839.72
2023-01-29T18:22:48.043Z,97834.59
2023-01-29T18:24:50.722Z,97835.56
2023-01-29T18:26:54.995Z,97833.91
2023-01-29T18:29:00.547Z,97838.31
2023-01-29T18:31:03.620Z,97829.63
2023-01-29T18:33:06.471Z,97829.63
2023-01-29T18:35:10.372Z,97829.63
2023-01-29T18:37:13.210Z,97825.34
2023-01-29T18:39:16.159Z,97825.63
2023-01-29T18:41:21.572Z,97829.91
2023-01-29T18:43:26.349Z,97828.38
2023-01-29T18:45:32.398Z,97830.19
2023-01-29T18:47:35.435Z,97829.22
2023-01-29T18:49:39.132Z,97822.31
2023-01-29T18:51:42.161Z,97829.34
2023-01-29T18:53:46.558Z,97827.56
2023-01-29T18:55:56.178Z,97817.75
2023-01-29T18:58:25.219Z,97817.75
2023-01-29T19:00:25.416Z,97823.97
2023-01-29T19:02:28.202Z,97819.56
2023-01-29T19:04:31.008Z,97813.47
2023-01-29T19:06:35.685Z,97816.09
2023-01-29T19:08:40.827Z,97814.44
2023-01-29T19:10:43.654Z,97810.19
2023-01-29T19:12:46.487Z,97816.34
2023-01-29T19:14:49.178Z,97816.34
2023-01-29T19:16:53.288Z,97817.31
2023-01-29T19:18:56.646Z,97822.56
2023-01-29T19:20:59.365Z,97815.66
2023-01-29T19:23:02.010Z,97814.69
2023-01-29T19:25:05.194Z,97819.94
2023-01-29T19:27:07.868Z,97819.13
2023-01-29T19:29:11.343Z,97818.97
2023-01-29T19:31:14.207Z,97819.13
2023-01-29T19:33:18.309Z,97824.50
2023-01-29T19:35:21.065Z,97822.84
2023-01-29T19:37:23.730Z,97830.03
2023-01-29T19:39:29.893Z,97825.75
2023-01-29T19:41:33.315Z,97840.78
2023-01-29T19:43:38.146Z,97834.81
2023-01-29T19:45:50.478Z,97839.13
2023-01-29T19:47:55.319Z,97840.91
2023-01-29T19:49:59.477Z,97844.22
2023-01-29T19:52:02.308Z,97845.06
2023-01-29T19:54:05.288Z,97851.41
2023-01-29T19:56:10.275Z,97857.47
2023-01-29T19:58:13.838Z,97849.63
2023-01-29T20:00:18.065Z,97854.84
2023-01-29T20:02:20.855Z,97858.31
2023-01-29T20:04:23.571Z,97854.97
2023-01-29T20:06:30.972Z,97860.34
2023-01-29T20:08:35.616Z,97859.50
2023-01-29T20:10:38.503Z,97860.34
2023-01-29T20:12:41.226Z,97867.25
2023-01-29T20:14:48.768Z,97858.41
2023-01-29T20:16:51.472Z,97864.63
2023-01-29T20:18:54.183Z,97867.25
2023-01-29T20:20:57.129Z,97856.06
2023-01-29T20:23:02.094Z,97870.81
2023-01-29T20:25:05.191Z,97864.06
2023-01-29T20:27:07.960Z,97866.69
2023-01-29T20:29:11.410Z,97871.25
2023-01-29T20:31:14.283Z,97880.91
2023-01-29T20:33:16.970Z,97871.50
2023-01-29T20:35:19.712Z,97874.25
2023-01-29T20:37:22.487Z,97876.88
2023-01-29T20:39:26.657Z,97885.69
2023-01-29T20:41:30.056Z,97884.03
2023-01-29T20:43:32.905Z,97883.22
2023-01-29T20:45:36.033Z,97892.88
2023-01-29T20:47:38.897Z,97879.06
2023-01-29T20:49:41.591Z,97883.47
2023-01-29T20:51:44.367Z,97882.78
2023-01-29T20:53:48.465Z,97883.75
2023-01-29T20:55:53.120Z,97891.47
2023-01-29T20:58:05.128Z,97888.72
2023-01-29T21:00:10.700Z,97892.16
2023-01-29T21:02:13.383Z,97903.63
2023-01-29T21:04:16.969Z,97899.47
2023-01-29T21:06:19.639Z,97904.72
2023-01-29T21:08:22.429Z,97903.06
2023-01-29T21:10:25.236Z,97905.69
2023-01-29T21:12:29.319Z,97905.78
2023-01-29T21:14:32.330Z,97900.53
2023-01-29T21:16:35.151Z,97900.53
2023-01-29T21:18:37.988Z,97909.38
2023-01-29T21:20:40.659Z,97898.88
2023-01-29T21:22:44.113Z,97898.88
2023-01-29T21:24:46.781Z,97901.78
2023-01-29T21:26:49.689Z,97897.63
2023-01-29T21:28:53.828Z,97896.66
2023-01-29T21:31:04.316Z,97892.25
2023-01-29T21:33:07.025Z,97899.16
2023-01-29T21:35:11.280Z,97897.78
2023-01-29T21:37:14.208Z,97902.19
2023-01-29T21:39:20.988Z,97903.84
